Time;durP1;ratioP1;P1;durP2;ratioP2;P2;SDS_P1;SDS_P2;PMS_P1;PMS_P2;Temp;Humidity;BMP_temperature;BMP_pressure;BME280_temperature;BME280_humidity;BME280_pressure;Samples;Min_cycle;Max_cycle;Signal;HPM_P1;HPM_P2
2023/01/06 00:01:29;;;;;;;11.75;3.50;;;;;;;12.31;73.30;100847.09;10308962;28;20062;-67
2023/01/06 00:06:30;;;;;;;16.02;3.55;;;;;;;12.35;73.35;100837.66;10306770;28;20039;-68
2023/01/06 00:11:32;;;;;;;14.25;2.63;;;;;;;12.39;73.14;100830.06;10302413;28;20047;-68
2023/01/06 00:16:35;;;;;;;13.50;3.45;;;;;;;12.38;73.39;100821.13;10304636;28;20058;-67
2023/01/06 00:21:36;;;;;;;16.00;3.03;;;;;;;12.37;73.30;100821.31;10302732;28;20046;-68
2023/01/06 00:26:38;;;;;;;12.80;3.38;;;;;;;12.32;73.81;100818.28;10307445;28;20058;-68
2023/01/06 00:31:39;;;;;;;17.90;3.92;;;;;;;12.25;73.75;100820.84;10309613;28;20054;-68
2023/01/06 00:36:40;;;;;;;16.50;3.75;;;;;;;12.32;73.64;100813.72;10313059;28;20059;-68
2023/01/06 00:47:05;;;;;;;8.05;3.30;;;;;;;12.42;73.98;100800.88;10305177;28;20116;-68
2023/01/06 00:52:07;;;;;;;10.40;3.03;;;;;;;12.54;73.36;100800.47;10308186;28;20050;-69
2023/01/06 00:57:09;;;;;;;10.48;2.80;;;;;;;12.54;73.85;100801.31;10305252;28;20153;-68
2023/01/06 01:02:10;;;;;;;10.75;3.47;;;;;;;12.58;73.33;100805.34;10309394;28;20055;-68
2023/01/06 01:07:12;;;;;;;13.40;3.35;;;;;;;12.55;73.51;100805.69;10308511;28;20053;-68
2023/01/06 01:12:13;;;;;;;8.00;2.47;;;;;;;12.69;73.21;100801.38;10302630;28;20058;-69
2023/01/06 01:17:18;;;;;;;12.00;2.78;;;;;;;12.76;73.06;100813.16;10310866;28;20057;-68
2023/01/06 01:22:20;;;;;;;9.07;2.30;;;;;;;12.82;73.19;100804.34;10311851;28;20050;-69
2023/01/06 01:27:21;;;;;;;12.55;3.75;;;;;;;12.82;73.14;100808.91;10308399;28;20540;-69
2023/01/06 01:32:23;;;;;;;5.40;3.00;;;;;;;12.83;73.09;100811.41;10310582;28;20366;-68
2023/01/06 01:37:24;;;;;;;8.32;2.42;;;;;;;12.96;72.90;100815.38;10309828;28;20055;-69
2023/01/06 01:42:26;;;;;;;8.48;2.90;;;;;;;12.90;73.09;100811.53;10307802;28;20093;-69
2023/01/06 01:47:36;;;;;;;9.45;3.47;;;;;;;12.90;73.01;100801.56;10299851;28;20055;-68
2023/01/06 01:52:39;;;;;;;11.32;3.13;;;;;;;13.00;72.75;100805.91;10304117;28;20058;-67
2023/01/06 01:58:04;;;;;;;9.00;2.85;;;;;;;12.97;72.70;100800.84;10308659;28;20050;-68
2023/01/06 02:03:06;;;;;;;8.20;3.53;;;;;;;12.88;73.39;100786.59;10302407;28;20117;-69
2023/01/06 02:08:30;;;;;;;7.78;2.72;;;;;;;12.84;73.58;100783.41;10279965;28;20497;-71
2023/01/06 02:13:34;;;;;;;7.30;2.65;;;;;;;12.81;73.31;100783.75;10297731;28;20092;-70
2023/01/06 02:18:52;;;;;;;8.05;2.72;;;;;;;12.73;73.63;100775.72;10297831;28;20046;-71
2023/01/06 02:24:28;;;;;;;9.35;3.00;;;;;;;12.79;73.59;100782.25;10303749;28;20046;-69
2023/01/06 02:29:49;;;;;;;7.85;2.75;;;;;;;12.75;73.53;100767.47;10299735;28;20405;-70
2023/01/06 02:35:36;;;;;;;7.20;3.20;;;;;;;12.80;73.48;100775.88;10301766;28;20110;-70
2023/01/06 02:40:53;;;;;;;5.70;2.50;;;;;;;12.75;73.84;100764.75;10137782;29;20522;-71
2023/01/06 02:46:07;;;;;;;10.80;3.43;;;;;;;12.64;74.35;100757.94;10265567;28;20166;-69
2023/01/06 02:51:24;;;;;;;13.35;4.28;;;;;;;12.58;74.44;100759.50;10295282;28;20046;-70
2023/01/06 02:56:30;;;;;;;12.97;4.90;;;;;;;12.24;75.69;100762.56;10295975;28;20046;-69
2023/01/06 03:01:40;;;;;;;9.57;5.23;;;;;;;12.09;76.57;100759.78;10301152;28;20055;-69
2023/01/06 03:06:46;;;;;;;13.30;6.28;;;;;;;12.08;76.22;100758.94;10302125;28;20113;-67
2023/01/06 03:11:50;;;;;;;9.75;4.63;;;;;;;12.04;76.90;100752.19;10300824;28;20122;-69
2023/01/06 03:16:52;;;;;;;8.38;4.30;;;;;;;12.07;76.54;100754.56;10295822;28;20059;-68
2023/01/06 03:21:55;;;;;;;9.50;6.18;;;;;;;12.15;76.89;100744.75;10296167;28;20070;-69
2023/01/06 03:26:57;;;;;;;13.05;6.47;;;;;;;12.18;76.93;100739.84;10296317;28;20050;-68
2023/01/06 03:32:12;;;;;;;12.27;5.88;;;;;;;12.27;76.88;100735.25;10294477;28;20059;-67
2023/01/06 03:37:29;;;;;;;11.77;5.80;;;;;;;12.33;76.34;100731.84;10303178;28;20490;-67
2023/01/06 03:48:18;;;;;;;7.88;4.65;;;;;;;12.45;75.90;100713.41;10297742;28;20074;-68
2023/01/06 03:53:28;;;;;;;7.47;3.70;;;;;;;12.41;75.49;100715.63;10298846;28;20070;-67
2023/01/06 03:58:29;;;;;;;8.93;4.97;;;;;;;12.36;76.15;100707.25;10300806;28;20141;-65
2023/01/06 04:03:31;;;;;;;8.48;4.53;;;;;;;12.34;76.06;100693.06;10305265;28;20074;-68
2023/01/06 04:08:33;;;;;;;8.60;5.03;;;;;;;12.33;76.54;100690.56;10302692;28;20077;-69
2023/01/06 04:13:34;;;;;;;12.65;6.88;;;;;;;12.32;76.90;100694.28;10301382;28;20149;-68
2023/01/06 04:18:35;;;;;;;9.80;6.00;;;;;;;12.33;76.99;100695.97;10298487;28;20047;-69
2023/01/06 04:23:37;;;;;;;11.55;6.25;;;;;;;12.37;77.11;100694.59;10294829;28;20047;-69
2023/01/06 04:28:38;;;;;;;15.23;6.93;;;;;;;12.44;77.00;100695.53;10303201;28;20070;-68
2023/01/06 04:33:39;;;;;;;11.07;5.90;;;;;;;12.46;76.99;100690.78;10299035;28;20573;-68
2023/01/06 04:38:41;;;;;;;9.48;5.32;;;;;;;12.50;77.04;100689.44;10303712;28;20589;-68
2023/01/06 04:43:42;;;;;;;6.07;4.15;;;;;;;12.48;77.39;100696.88;10308562;28;20058;-66
2023/01/06 04:48:44;;;;;;;6.22;3.63;;;;;;;12.50;76.88;100698.38;10298335;28;20051;-68
2023/01/06 04:53:46;;;;;;;5.53;3.28;;;;;;;12.48;77.29;100702.28;10288973;28;20443;-67
2023/01/06 04:58:47;;;;;;;5.45;3.50;;;;;;;12.53;77.20;100699.03;10303002;28;20046;-66
2023/01/06 05:03:49;;;;;;;5.03;2.95;;;;;;;12.68;76.42;100708.00;10305047;28;20161;-68
2023/01/06 05:08:51;;;;;;;6.70;3.85;;;;;;;12.63;76.48;100711.22;10303686;28;20065;-68
2023/01/06 05:13:53;;;;;;;8.18;3.38;;;;;;;12.55;77.19;100700.50;10298380;28;20124;-66
2023/01/06 05:18:54;;;;;;;6.45;2.60;;;;;;;12.54;77.11;100698.84;10300508;28;20093;-68
2023/01/06 05:23:56;;;;;;;2.20;1.38;;;;;;;12.52;76.78;100687.41;10300932;28;20589;-69
2023/01/06 05:28:57;;;;;;;1.67;0.80;;;;;;;12.47;76.56;100690.63;10284516;28;20050;-66
2023/01/06 05:33:59;;;;;;;1.80;0.88;;;;;;;12.52;76.82;100686.53;10303321;28;20592;-66
2023/01/06 05:39:00;;;;;;;2.00;0.85;;;;;;;12.54;76.56;100696.16;10301441;28;20117;-67
2023/01/06 05:44:02;;;;;;;1.90;0.70;;;;;;;12.54;75.99;100695.28;10301107;28;20062;-69
2023/01/06 05:49:03;;;;;;;1.90;0.90;;;;;;;12.50;76.45;100697.53;10282441;28;20070;-69
2023/01/06 05:54:08;;;;;;;2.55;0.63;;;;;;;12.46;75.87;100699.75;10298011;28;20054;-69
2023/01/06 05:59:09;;;;;;;3.22;0.88;;;;;;;12.47;75.88;100709.50;10281919;28;20082;-69
2023/01/06 06:04:12;;;;;;;1.45;0.45;;;;;;;12.50;75.44;100702.94;10280481;28;20520;-69
2023/01/06 06:09:13;;;;;;;1.73;0.50;;;;;;;12.47;75.60;100717.59;10295463;28;20132;-69
2023/01/06 06:14:14;;;;;;;2.47;0.43;;;;;;;12.40;76.02;100713.09;10294000;28;20500;-70
2023/01/06 06:19:18;;;;;;;1.52;0.40;;;;;;;12.48;75.27;100713.88;10296076;28;20047;-67
2023/01/06 06:24:19;;;;;;;0.47;0.30;;;;;;;12.49;75.42;100720.13;10303325;28;20494;-69
2023/01/06 06:29:20;;;;;;;3.63;0.38;;;;;;;12.44;75.58;100706.31;10299078;28;20047;-70
2023/01/06 06:34:22;;;;;;;0.50;0.20;;;;;;;12.43;75.07;100712.75;10301030;28;20078;-70
2023/01/06 06:39:23;;;;;;;0.30;0.30;;;;;;;12.43;75.30;100707.34;10299932;28;20077;-69
2023/01/06 06:44:24;;;;;;;0.50;0.30;;;;;;;12.42;74.79;100709.22;10300369;28;20678;-69
2023/01/06 06:49:26;;;;;;;2.17;0.20;;;;;;;12.43;74.96;100718.13;10299927;28;20690;-69
2023/01/06 06:54:27;;;;;;;0.22;0.20;;;;;;;12.38;74.96;100717.81;10298292;28;20178;-70
2023/01/06 06:59:28;;;;;;;2.15;0.22;;;;;;;12.39;74.36;100714.94;10300886;28;20133;-68
2023/01/06 07:04:30;;;;;;;1.70;0.10;;;;;;;12.36;74.51;100723.41;10297051;28;20391;-68
2023/01/06 07:09:31;;;;;;;0.82;0.13;;;;;;;12.32;74.25;100724.75;10299921;28;20042;-70
2023/01/06 07:14:33;;;;;;;3.05;0.20;;;;;;;12.31;73.88;100720.41;10303778;28;20133;-70
2023/01/06 07:19:34;;;;;;;0.68;0.10;;;;;;;12.26;74.16;100720.94;10298060;28;20591;-70
2023/01/06 07:24:35;;;;;;;0.75;0.20;;;;;;;12.30;73.70;100713.31;10295240;28;20512;-67
2023/01/06 07:29:37;;;;;;;0.65;0.20;;;;;;;12.31;73.20;100725.78;10278302;28;20145;-69
2023/01/06 07:34:38;;;;;;;1.55;0.10;;;;;;;12.29;73.24;100728.66;10300878;28;20722;-69
2023/01/06 07:39:39;;;;;;;0.57;0.10;;;;;;;12.32;73.01;100735.53;10305075;28;20449;-69
2023/01/06 07:44:41;;;;;;;0.70;0.20;;;;;;;12.38;72.76;100747.47;10303754;28;20050;-68
2023/01/06 07:49:42;;;;;;;0.75;0.20;;;;;;;12.44;72.65;100746.75;10303138;28;20070;-67
2023/01/06 07:54:44;;;;;;;1.85;0.40;;;;;;;12.46;72.62;100750.97;10301361;28;20051;-67
2023/01/06 07:59:45;;;;;;;0.60;0.20;;;;;;;12.53;72.36;100761.03;10289088;28;20104;-67
2023/01/06 08:04:47;;;;;;;1.88;0.20;;;;;;;12.54;72.61;100763.56;10308007;28;20152;-66
2023/01/06 08:09:48;;;;;;;1.00;0.20;;;;;;;12.50;72.74;100765.78;10313616;28;20046;-67
2023/01/06 08:14:50;;;;;;;0.73;0.15;;;;;;;12.55;72.39;100765.22;10307484;28;20047;-68
2023/01/06 08:19:51;;;;;;;2.33;0.20;;;;;;;12.61;71.78;100778.00;10289511;28;20073;-68
2023/01/06 08:24:52;;;;;;;1.42;0.30;;;;;;;12.63;71.70;100765.19;10308175;28;20559;-68
2023/01/06 08:29:54;;;;;;;2.60;0.20;;;;;;;12.69;71.71;100767.16;10309928;28;20047;-67
2023/01/06 08:34:55;;;;;;;0.88;0.40;;;;;;;12.67;71.79;100765.66;10311772;28;20081;-66
2023/01/06 08:39:57;;;;;;;0.70;0.20;;;;;;;12.67;71.20;100746.78;10308037;28;20285;-68
2023/01/06 08:44:58;;;;;;;0.95;0.20;;;;;;;12.62;71.40;100749.19;10306596;28;20057;-66
2023/01/06 08:49:59;;;;;;;0.20;0.10;;;;;;;12.61;71.46;100761.00;10304875;28;20097;-68
2023/01/06 08:55:01;;;;;;;0.80;0.20;;;;;;;12.65;71.12;100760.44;10308819;28;20050;-68
2023/01/06 09:00:04;;;;;;;0.77;0.20;;;;;;;12.72;70.55;100757.88;10304898;28;20669;-68
2023/01/06 09:05:06;;;;;;;0.63;0.35;;;;;;;12.75;70.81;100767.47;10297327;28;20105;-66
2023/01/06 09:10:08;;;;;;;1.95;0.73;;;;;;;12.76;70.07;100763.75;10304217;28;20700;-69
2023/01/06 09:15:10;;;;;;;0.50;0.30;;;;;;;12.76;70.44;100767.28;10305431;28;20046;-68
2023/01/06 09:20:11;;;;;;;1.05;0.10;;;;;;;12.72;69.97;100771.38;10305488;28;20145;-68
2023/01/06 09:25:13;;;;;;;2.50;0.15;;;;;;;12.83;69.80;100780.88;10310515;28;20631;-68
2023/01/06 09:30:14;;;;;;;0.98;0.10;;;;;;;12.85;69.33;100787.78;10300549;28;20069;-69
2023/01/06 09:35:16;;;;;;;3.58;0.20;;;;;;;12.85;69.32;100809.34;10303636;28;20054;-69
2023/01/06 09:40:22;;;;;;;1.85;0.20;;;;;;;12.86;69.13;100815.63;10305314;28;20072;-69
2023/01/06 09:45:45;;;;;;;2.33;1.00;;;;;;;12.90;68.70;100814.22;10308464;28;20147;-68
2023/01/06 09:50:52;;;;;;;3.47;0.40;;;;;;;12.93;68.98;100804.94;10307022;28;20082;-69
2023/01/06 09:55:56;;;;;;;;;;;;;;;12.90;69.03;100806.97;10300536;28;20051;-68
2023/01/06 10:01:05;;;;;;;0.77;0.20;;;;;;;12.92;68.48;100801.41;10302122;28;19957;-68
2023/01/06 10:06:38;;;;;;;0.70;0.20;;;;;;;12.94;68.40;100806.63;10301868;28;20124;-68
2023/01/06 10:11:58;;;;;;;1.13;0.10;;;;;;;12.97;68.46;100811.66;10306378;28;20078;-69
2023/01/06 10:17:37;;;;;;;1.10;0.15;;;;;;;12.93;67.89;100805.75;10285364;28;20134;-69
2023/01/06 10:23:00;;;;;;;1.77;0.20;;;;;;;12.98;67.65;100802.53;10298838;28;20528;-69
2023/01/06 10:28:12;;;;;;;1.38;0.08;;;;;;;13.04;67.49;100788.31;10296809;28;20077;-69
2023/01/06 10:33:23;;;;;;;1.80;0.15;;;;;;;13.07;67.32;100793.34;10295827;28;20086;-68
2023/01/06 10:38:51;;;;;;;1.08;0.10;;;;;;;13.19;67.06;100783.81;10298696;28;20064;-68
2023/01/06 10:43:52;;;;;;;0.47;0.10;;;;;;;13.23;66.81;100778.84;10298824;28;20050;-69
2023/01/06 10:48:54;;;;;;;0.88;0.13;;;;;;;13.28;66.80;100779.16;10287621;28;20050;-68
2023/01/06 10:53:56;;;;;;;1.35;0.10;;;;;;;13.28;66.56;100774.59;10300379;28;20137;-68
2023/01/06 10:59:05;;;;;;;0.90;0.30;;;;;;;13.35;66.07;100758.56;10296172;28;20096;-69
2023/01/06 11:04:12;;;;;;;0.30;0.20;;;;;;;13.30;66.26;100744.75;10295759;28;20070;-70
2023/01/06 11:09:38;;;;;;;5.53;0.20;;;;;;;13.27;65.92;100732.44;10302049;28;20454;-72
2023/01/06 11:14:40;;;;;;;0.82;0.20;;;;;;;13.28;66.00;100734.09;10300904;28;20058;-70
2023/01/06 11:19:44;;;;;;;0.20;0.10;;;;;;;13.28;66.00;100734.09;10300816;28;20095;-68
2023/01/06 11:24:53;;;;;;;0.03;0.00;;;;;;;13.37;65.42;100734.03;10300677;28;20378;-69
2023/01/06 11:29:54;;;;;;;0.47;0.00;;;;;;;13.37;65.17;100734.91;10295428;28;20047;-68
2023/01/06 11:34:59;;;;;;;0.30;0.00;;;;;;;13.47;65.11;100731.94;10298754;28;20125;-68
2023/01/06 11:40:04;;;;;;;0.20;0.10;;;;;;;13.55;64.69;100729.13;10297968;28;20055;-69
2023/01/06 11:45:34;;;;;;;0.30;0.10;;;;;;;13.58;65.05;100736.03;10296285;28;20047;-69
2023/01/06 11:50:35;;;;;;;0.20;0.00;;;;;;;13.57;64.88;100716.28;10293429;28;20058;-69
2023/01/06 11:55:37;;;;;;;1.23;0.10;;;;;;;13.52;65.02;100705.19;10300665;28;20602;-69
2023/01/06 12:01:14;;;;;;;2.00;0.10;;;;;;;13.61;64.66;100706.78;10303502;28;20159;-70
2023/01/06 12:06:29;;;;;;;0.30;0.00;;;;;;;13.74;64.38;100719.59;10301190;28;20055;-68
2023/01/06 12:11:44;;;;;;;0.13;0.10;;;;;;;13.77;64.25;100715.72;10304420;28;20108;-67
2023/01/06 12:16:55;;;;;;;0.57;0.10;;;;;;;13.87;64.03;100716.25;10298586;28;20627;-69
2023/01/06 12:21:58;;;;;;;1.38;0.10;;;;;;;13.97;63.56;100710.56;10299423;28;20066;-69
2023/01/06 12:27:04;;;;;;;1.05;0.10;;;;;;;14.09;63.44;100711.72;10304606;28;20120;-69
2023/01/06 12:32:13;;;;;;;0.20;0.10;;;;;;;14.17;62.77;100698.09;10308733;28;20054;-68
2023/01/06 12:37:37;;;;;;;2.72;0.10;;;;;;;14.22;62.77;100689.44;10310440;28;20472;-68
2023/01/06 12:43:06;;;;;;;0.08;0.00;;;;;;;14.27;62.46;100684.25;10306430;28;20101;-71
2023/01/06 12:48:35;;;;;;;0.15;0.00;;;;;;;14.24;62.24;100687.38;10304105;28;20074;-69
2023/01/06 12:53:44;;;;;;;0.22;0.10;;;;;;;14.21;62.35;100685.03;10305307;28;20469;-69
2023/01/06 12:58:57;;;;;;;1.15;0.08;;;;;;;14.15;62.33;100683.94;10306936;28;20051;-71
2023/01/06 13:04:44;;;;;;;0.35;0.10;;;;;;;14.20;62.29;100696.91;10306712;28;20563;-70
2023/01/06 13:10:12;;;;;;;0.30;0.20;;;;;;;14.21;62.03;100702.09;10265057;28;20057;-69
2023/01/06 13:15:27;;;;;;;1.75;0.10;;;;;;;14.18;62.41;100704.31;10300475;28;20500;-71
2023/01/06 13:20:54;;;;;;;0.45;0.10;;;;;;;14.04;62.42;100696.09;10301089;28;20514;-69
2023/01/06 13:26:16;;;;;;;0.08;0.08;;;;;;;14.07;62.48;100684.88;10309243;28;20078;-71
2023/01/06 13:31:48;;;;;;;0.20;0.03;;;;;;;14.04;62.48;100687.13;10300278;28;20137;-68
2023/01/06 13:37:19;;;;;;;0.50;0.10;;;;;;;14.02;62.30;100694.59;10307706;28;20138;-70
2023/01/06 13:42:31;;;;;;;1.05;0.10;;;;;;;13.99;62.41;100703.09;10305652;28;20093;-68
2023/01/06 13:47:34;;;;;;;0.95;0.10;;;;;;;14.01;62.47;100701.88;10302861;28;20146;-70
2023/01/06 13:52:36;;;;;;;0.40;0.10;;;;;;;13.98;62.49;100699.56;10299282;28;20057;-68
2023/01/06 13:57:38;;;;;;;1.00;0.30;;;;;;;14.05;62.17;100711.28;10303011;28;20099;-68
2023/01/06 14:02:41;;;;;;;0.73;0.10;;;;;;;14.03;62.44;100709.78;10301286;28;20077;-69
2023/01/06 14:08:01;;;;;;;1.10;0.20;;;;;;;14.01;62.51;100709.97;10297202;28;20050;-69
2023/01/06 14:13:23;;;;;;;0.70;0.13;;;;;;;13.90;62.79;100715.84;10297872;28;20038;-70
2023/01/06 14:18:36;;;;;;;0.20;0.10;;;;;;;13.83;62.93;100709.56;10288711;28;20055;-70
2023/01/06 14:23:52;;;;;;;0.82;0.20;;;;;;;13.83;63.03;100720.34;10298073;28;20047;-70
2023/01/06 14:28:54;;;;;;;0.20;0.10;;;;;;;13.80;62.89;100721.59;10291411;28;20126;-70
2023/01/06 14:33:58;;;;;;;1.08;0.22;;;;;;;13.72;63.00;100718.97;10302388;28;20046;-69
2023/01/06 14:39:04;;;;;;;1.35;0.10;;;;;;;13.74;63.25;100719.59;10294979;28;20129;-69
2023/01/06 14:44:14;;;;;;;3.00;0.20;;;;;;;13.68;63.54;100723.91;10294080;28;20141;-70
2023/01/06 14:49:23;;;;;;;0.57;0.20;;;;;;;13.63;63.29;100723.63;10299268;28;20054;-70
2023/01/06 14:54:35;;;;;;;1.20;0.10;;;;;;;13.57;63.76;100727.09;10294241;28;20043;-68
2023/01/06 14:59:36;;;;;;;0.40;0.10;;;;;;;13.57;63.39;100721.69;10296335;28;20082;-70
2023/01/06 15:04:38;;;;;;;0.28;0.10;;;;;;;13.51;63.68;100729.66;10293808;28;20129;-70
2023/01/06 15:09:40;;;;;;;1.48;0.30;;;;;;;13.55;64.02;100734.53;10295505;28;20560;-68
2023/01/06 15:14:41;;;;;;;1.15;0.20;;;;;;;13.55;64.04;100729.13;10293491;28;20062;-69
2023/01/06 15:19:45;;;;;;;2.00;0.20;;;;;;;13.65;63.92;100734.25;10298587;28;20126;-68
2023/01/06 15:24:48;;;;;;;0.82;0.10;;;;;;;13.63;63.97;100737.13;10301782;28;20560;-68
2023/01/06 15:29:51;;;;;;;0.30;0.10;;;;;;;13.61;64.00;100744.59;10302191;28;20089;-69
2023/01/06 15:34:56;;;;;;;0.40;0.10;;;;;;;13.64;64.11;100744.19;10294890;28;20078;-66
2023/01/06 15:39:58;;;;;;;3.15;0.30;;;;;;;13.68;63.89;100736.56;10292932;28;20132;-66
2023/01/06 15:45:01;;;;;;;0.35;0.13;;;;;;;13.72;63.94;100737.88;10295623;28;20137;-68
2023/01/06 15:50:06;;;;;;;0.40;0.20;;;;;;;13.75;63.83;100739.38;10296208;28;20604;-68
2023/01/06 15:55:24;;;;;;;1.48;0.10;;;;;;;13.60;64.17;100744.78;10296669;28;20258;-67
2023/01/06 16:00:30;;;;;;;1.48;0.17;;;;;;;13.57;64.22;100747.88;10300555;28;20066;-65
2023/01/06 16:05:35;;;;;;;0.20;0.17;;;;;;;13.55;64.41;100756.16;10302341;28;20055;-66
2023/01/06 16:10:37;;;;;;;1.10;0.25;;;;;;;13.55;64.32;100756.16;10299664;28;20112;-66
2023/01/06 16:15:45;;;;;;;1.10;0.20;;;;;;;13.55;64.41;100764.25;10304226;28;20505;-67
2023/01/06 16:20:46;;;;;;;0.30;0.20;;;;;;;13.65;64.42;100763.97;10304862;28;20042;-67
2023/01/06 16:25:48;;;;;;;0.77;0.50;;;;;;;13.64;64.62;100764.97;10310530;28;20046;-66
2023/01/06 16:31:08;;;;;;;0.43;0.43;;;;;;;13.56;64.63;100763.22;10304073;28;20466;-68
2023/01/06 16:36:14;;;;;;;0.20;0.10;;;;;;;13.47;64.91;100769.75;10298232;28;20042;-68
2023/01/06 16:41:17;;;;;;;0.55;0.30;;;;;;;13.45;64.82;100764.50;10305381;28;20134;-68
2023/01/06 16:46:24;;;;;;;1.05;0.30;;;;;;;13.51;64.77;100756.69;10306790;28;20061;-69
2023/01/06 16:51:27;;;;;;;0.87;0.30;;;;;;;13.41;64.80;100760.50;10309805;28;20050;-73
2023/01/06 16:56:29;;;;;;;1.33;0.35;;;;;;;13.39;65.04;100764.41;10305140;28;20401;-71
2023/01/06 17:01:30;;;;;;;0.22;0.20;;;;;;;13.44;64.96;100762.00;10306796;28;20701;-72
2023/01/06 17:06:32;;;;;;;0.50;0.20;;;;;;;13.43;64.88;100754.94;10279204;28;20137;-75
2023/01/06 17:11:36;;;;;;;0.85;0.20;;;;;;;13.40;64.64;100744.47;10308805;28;20756;-71
2023/01/06 17:16:39;;;;;;;0.60;0.30;;;;;;;13.33;64.99;100746.22;10301973;28;20047;-70
2023/01/06 17:21:41;;;;;;;0.68;0.40;;;;;;;13.25;65.37;100755.22;10306341;28;21049;-70
2023/01/06 17:26:57;;;;;;;0.57;0.30;;;;;;;13.24;64.96;100753.56;10296271;28;20050;-72
2023/01/06 17:32:01;;;;;;;0.43;0.30;;;;;;;13.23;65.29;100768.91;10297352;28;20073;-70
2023/01/06 17:37:12;;;;;;;0.73;0.40;;;;;;;13.20;65.53;100779.25;10306949;28;20108;-69
2023/01/06 17:42:13;;;;;;;1.75;0.30;;;;;;;13.19;65.55;100777.56;10307627;28;20482;-68
2023/01/06 17:47:14;;;;;;;0.63;0.30;;;;;;;13.15;65.55;100787.03;10314792;28;20085;-71
2023/01/06 17:52:20;;;;;;;0.50;0.30;;;;;;;13.08;65.49;100789.63;10290296;28;20038;-71
2023/01/06 17:57:22;;;;;;;4.68;2.25;;;;;;;13.08;65.55;100784.25;10297269;28;20456;-70
2023/01/06 18:02:44;;;;;;;0.65;0.40;;;;;;;13.02;66.10;100793.91;10310754;28;20138;-69
2023/01/06 18:07:45;;;;;;;0.82;0.40;;;;;;;13.01;66.03;100810.25;10312318;28;20072;-71
2023/01/06 18:12:47;;;;;;;3.00;0.38;;;;;;;13.07;65.67;100801.44;10310405;28;20164;-73
2023/01/06 18:17:48;;;;;;;1.95;0.50;;;;;;;13.10;65.73;100801.91;10297737;28;20547;-69
2023/01/06 18:22:50;;;;;;;0.50;0.40;;;;;;;13.04;66.03;100812.63;10298892;28;20133;-74
2023/01/06 18:27:51;;;;;;;2.15;0.82;;;;;;;13.10;65.72;100817.28;10299616;28;20086;-73
2023/01/06 18:32:53;;;;;;;0.80;0.40;;;;;;;13.09;65.42;100823.69;10294433;28;20201;-73
2023/01/06 18:37:59;;;;;;;0.60;0.40;;;;;;;13.12;65.66;100815.25;10299349;28;20078;-71
2023/01/06 18:43:15;;;;;;;0.68;0.50;;;;;;;13.07;65.98;100825.72;10283331;28;20393;-72
2023/01/06 18:48:26;;;;;;;0.60;0.40;;;;;;;13.12;65.51;100819.81;10284206;28;20505;-71
2023/01/06 18:53:30;;;;;;;0.50;0.30;;;;;;;13.08;65.89;100814.75;10295662;28;20145;-72
2023/01/06 18:58:46;;;;;;;1.73;0.60;;;;;;;13.09;65.82;100812.88;10298476;28;20082;-72
2023/01/06 19:04:28;;;;;;;0.50;0.40;;;;;;;12.95;66.23;100819.09;10300827;28;20078;-73
2023/01/06 19:09:36;;;;;;;0.60;0.40;;;;;;;13.01;66.18;100824.63;10289702;28;20493;-73
2023/01/06 19:14:41;;;;;;;0.90;0.77;;;;;;;13.02;66.05;100822.75;10299479;28;20125;-73
2023/01/06 19:19:43;;;;;;;0.45;0.30;;;;;;;13.06;65.77;100821.38;10297776;28;20378;-70
2023/01/06 19:24:48;;;;;;;0.82;0.40;;;;;;;13.03;65.62;100827.97;10297186;28;20114;-73
2023/01/06 19:29:52;;;;;;;1.42;0.40;;;;;;;13.09;65.66;100831.78;10297380;28;20082;-72
2023/01/06 19:34:54;;;;;;;1.73;0.70;;;;;;;13.12;65.87;100822.50;10307103;28;20136;-74
2023/01/06 19:39:56;;;;;;;1.83;0.50;;;;;;;13.12;65.54;100817.09;10304942;28;20073;-69
2023/01/06 19:45:08;;;;;;;2.67;0.40;;;;;;;13.13;65.68;100818.78;10310366;28;20093;-71
2023/01/06 19:50:20;;;;;;;1.38;0.40;;;;;;;13.10;65.44;100819.97;10307734;28;20117;-70
2023/01/06 19:55:27;;;;;;;0.90;0.50;;;;;;;13.18;65.47;100819.91;10305510;28;20441;-72
2023/01/06 20:00:34;;;;;;;1.95;0.52;;;;;;;13.17;65.61;100822.78;10303316;28;20078;-69
2023/01/06 20:05:35;;;;;;;1.38;0.60;;;;;;;13.21;65.12;100821.41;10307085;28;20530;-70
2023/01/06 20:10:37;;;;;;;12.48;1.52;;;;;;;13.17;65.42;100815.56;10304890;28;20497;-70
2023/01/06 20:15:38;;;;;;;0.77;0.50;;;;;;;13.12;65.79;100814.41;10309639;28;20117;-70
2023/01/06 20:20:39;;;;;;;0.90;0.50;;;;;;;13.04;65.78;100799.13;10303232;28;20078;-72
2023/01/06 20:25:42;;;;;;;1.15;0.50;;;;;;;12.96;66.02;100800.03;10291114;28;20058;-69
2023/01/06 20:30:44;;;;;;;1.20;0.50;;;;;;;12.84;66.23;100804.16;10286778;28;20046;-68
2023/01/06 20:35:46;;;;;;;0.80;0.52;;;;;;;12.84;66.05;100796.91;10307142;28;20058;-72
2023/01/06 20:40:48;;;;;;;0.98;0.50;;;;;;;12.83;66.68;100795.22;10276109;28;20046;-73
2023/01/06 20:45:50;;;;;;;0.90;0.50;;;;;;;12.86;66.29;100794.03;10303375;28;20115;-73
2023/01/06 20:50:51;;;;;;;1.65;0.70;;;;;;;12.81;66.63;100797.25;10303856;28;20073;-73
2023/01/06 20:55:53;;;;;;;1.10;0.80;;;;;;;12.84;66.59;100804.16;10308492;28;20058;-72
2023/01/06 21:00:55;;;;;;;3.63;1.30;;;;;;;12.82;66.77;100803.50;10297063;28;20042;-72
2023/01/06 21:05:56;;;;;;;1.55;0.80;;;;;;;12.82;66.57;100804.34;10300311;28;20667;-72
2023/01/06 21:10:57;;;;;;;2.15;1.25;;;;;;;12.84;66.73;100796.06;10306240;28;20149;-73
2023/01/06 21:15:59;;;;;;;2.40;1.15;;;;;;;12.85;66.54;100793.16;10303939;28;20105;-73
2023/01/06 21:21:00;;;;;;;1.35;0.80;;;;;;;12.96;66.49;100793.78;10302903;28;20129;-72
2023/01/06 21:26:02;;;;;;;1.90;0.93;;;;;;;12.95;66.68;100795.63;10302107;28;20058;-73
2023/01/06 21:31:03;;;;;;;1.00;0.90;;;;;;;12.93;66.78;100792.28;10301854;28;20514;-73
2023/01/06 21:36:05;;;;;;;1.42;0.75;;;;;;;13.08;66.39;100785.06;10298647;28;20050;-72
2023/01/06 21:46:26;;;;;;;1.50;0.80;;;;;;;12.95;66.34;100803.72;10295570;28;20055;-71
2023/01/06 21:51:28;;;;;;;1.73;0.93;;;;;;;12.93;66.44;100813.84;10301686;28;20046;-71
2023/01/06 21:56:30;;;;;;;1.95;1.25;;;;;;;12.92;66.69;100809.50;10289071;28;20089;-72
2023/01/06 22:01:31;;;;;;;1.98;0.80;;;;;;;12.86;66.74;100805.66;10306526;28;20073;-73
2023/01/06 22:06:35;;;;;;;2.45;0.80;;;;;;;12.91;66.93;100802.41;10303920;28;20523;-73
2023/01/06 22:11:38;;;;;;;2.47;0.82;;;;;;;12.98;66.36;100789.88;10301253;28;20132;-72
2023/01/06 22:16:40;;;;;;;2.35;1.00;;;;;;;12.90;67.04;100798.88;10299831;28;20082;-71
2023/01/06 22:21:43;;;;;;;2.00;0.80;;;;;;;12.87;66.83;100796.56;10305729;28;20539;-70
2023/01/06 22:26:44;;;;;;;1.92;0.65;;;;;;;12.93;66.97;100799.53;10302422;28;20531;-71
2023/01/06 22:31:46;;;;;;;1.67;0.80;;;;;;;12.94;66.92;100803.94;10298812;28;20058;-72
2023/01/06 22:36:47;;;;;;;1.05;0.70;;;;;;;13.10;66.25;100807.31;10289412;28;20169;-73
2023/01/06 22:41:48;;;;;;;1.63;0.80;;;;;;;12.98;66.89;100805.25;10300408;28;20050;-71
2023/01/06 22:46:50;;;;;;;1.40;0.80;;;;;;;12.96;67.07;100801.88;10299462;28;20149;-72
2023/01/06 22:51:51;;;;;;;1.92;0.70;;;;;;;12.87;67.32;100806.47;10298663;28;20064;-72
2023/01/06 22:56:52;;;;;;;2.00;1.02;;;;;;;12.79;67.22;100814.63;10302631;28;20062;-72
2023/01/06 23:01:54;;;;;;;3.22;1.20;;;;;;;12.86;67.30;100829.94;10290950;28;20129;-72
2023/01/06 23:06:55;;;;;;;1.75;0.80;;;;;;;12.86;67.28;100832.63;10304607;28;20717;-73
2023/01/06 23:11:57;;;;;;;2.85;0.70;;;;;;;12.80;67.15;100827.97;10303524;28;20062;-73
2023/01/06 23:16:58;;;;;;;3.00;1.92;;;;;;;12.94;67.12;100829.03;10308569;28;20069;-71
2023/01/06 23:21:59;;;;;;;3.05;0.90;;;;;;;13.01;67.04;100823.75;10320934;28;20490;-72
2023/01/06 23:27:01;;;;;;;0.80;0.60;;;;;;;13.06;66.92;100822.19;10308974;28;20100;-73
2023/01/06 23:32:02;;;;;;;2.53;0.70;;;;;;;13.00;67.05;100822.94;10301593;28;20058;-73
2023/01/06 23:37:03;;;;;;;1.17;0.40;;;;;;;13.02;66.75;100815.47;10302098;28;20137;-74
2023/01/06 23:42:06;;;;;;;1.85;0.68;;;;;;;13.03;66.72;100816.31;10281221;28;20050;-73